createdAt,value
2022-09-06T00:02:45.085Z,1010.2
2022-09-06T00:09:04.975Z,1010.16
2022-09-06T00:15:28.022Z,1010.18
2022-09-06T00:21:47.984Z,1010.14
2022-09-06T00:28:10.973Z,1010.2
2022-09-06T00:34:30.989Z,1010.39
2022-09-06T00:40:53.996Z,1010.95
2022-09-06T00:47:13.969Z,1011.12
2022-09-06T00:53:36.983Z,1011.28
2022-09-06T00:59:56.966Z,1011.4
2022-09-06T01:06:19.969Z,1011.38
2022-09-06T01:12:39.984Z,1011.22
2022-09-06T01:19:02.970Z,1011.18
2022-09-06T01:25:22.973Z,1011.18
2022-09-06T01:31:45.971Z,1011.18
2022-09-06T01:38:05.981Z,1011.14
2022-09-06T01:44:28.990Z,1011.07
2022-09-06T01:50:48.967Z,1011.01
2022-09-06T01:57:11.997Z,1010.95
2022-09-06T02:03:31.961Z,1010.95
2022-09-06T02:09:54.964Z,1010.95
2022-09-06T02:16:15.013Z,1010.97
2022-09-06T02:22:37.970Z,1011.16
2022-09-06T02:28:57.975Z,1011.2
2022-09-06T02:35:20.974Z,1011.16
2022-09-06T02:41:40.977Z,1011.24
2022-09-06T02:48:04.002Z,1011.24
2022-09-06T02:54:23.977Z,1011.18
2022-09-06T03:00:47.004Z,1011.1
2022-09-06T03:07:06.963Z,1010.97
2022-09-06T03:13:30.000Z,1010.89
2022-09-06T03:19:49.972Z,1010.81
2022-09-06T03:26:12.965Z,1010.81
2022-09-06T03:32:32.989Z,1010.75
2022-09-06T03:38:55.977Z,1010.65
2022-09-06T03:45:15.974Z,1010.53
2022-09-06T03:51:38.974Z,1010.63
2022-09-06T03:57:58.977Z,1010.49
2022-09-06T04:14:08.970Z,1010.41
2022-09-06T04:20:28.993Z,1010.35
2022-09-06T04:26:51.981Z,1010.33
2022-09-06T04:33:12.009Z,1010.39
2022-09-06T04:39:35.012Z,1010.43
2022-09-06T04:45:55.045Z,1010.45
2022-09-06T04:52:17.976Z,1010.43
2022-09-06T04:58:37.976Z,1010.41
2022-09-06T05:05:00.987Z,1010.39
2022-09-06T05:11:20.971Z,1010.45
2022-09-06T05:17:43.988Z,1010.53
2022-09-06T05:24:03.979Z,1010.65
2022-09-06T05:30:26.988Z,1010.65
2022-09-06T05:36:46.970Z,1010.67
2022-09-06T05:43:09.985Z,1010.69
2022-09-06T05:49:29.988Z,1010.69
2022-09-06T05:55:52.976Z,1010.69
2022-09-06T06:02:13.062Z,1010.69
2022-09-06T06:08:35.978Z,1010.75
2022-09-06T06:14:55.987Z,1010.73
2022-09-06T06:21:18.994Z,1010.73
2022-09-06T06:27:38.997Z,1010.73
2022-09-06T06:34:02.004Z,1010.77
2022-09-06T06:40:22.003Z,1010.77
2022-09-06T06:46:44.975Z,1010.81
2022-09-06T06:53:04.989Z,1010.79
2022-09-06T06:59:27.979Z,1010.81
2022-09-06T07:12:10.992Z,1010.79
2022-09-06T07:18:30.975Z,1010.83
2022-09-06T07:24:54.017Z,1010.77
2022-09-06T07:37:37.098Z,1010.67
2022-09-06T07:43:56.977Z,1010.67
2022-09-06T07:56:39.987Z,1010.55
2022-09-06T08:03:02.983Z,1010.47
2022-09-06T08:09:22.987Z,1010.47
2022-09-06T08:15:45.973Z,1010.45
2022-09-06T08:22:05.973Z,1010.43
2022-09-06T08:28:29.067Z,1010.41
2022-09-06T08:34:49.145Z,1010.39
2022-09-06T08:41:11.986Z,1010.35
2022-09-06T08:47:31.975Z,1010.33
2022-09-06T08:53:54.991Z,1010.29
2022-09-06T09:00:14.978Z,1010.25
2022-09-06T09:06:37.995Z,1010.2
2022-09-06T09:12:59.009Z,1010.08
2022-09-06T09:19:21.971Z,1010.08
2022-09-06T09:25:41.995Z,1010.04
2022-09-06T09:32:05.068Z,1010
2022-09-06T09:38:24.980Z,1009.96
2022-09-06T09:54:35.954Z,1009.71
2022-09-06T10:00:56.001Z,1009.59
2022-09-06T10:07:18.989Z,1009.55
2022-09-06T10:13:38.978Z,1009.51
2022-09-06T10:20:01.977Z,1009.47
2022-09-06T10:26:21.977Z,1009.39
2022-09-06T10:32:44.983Z,1009.43
2022-09-06T10:39:04.981Z,1009.45
2022-09-06T10:45:27.976Z,1009.45
2022-09-06T10:51:47.971Z,1009.41
2022-09-06T10:58:18.554Z,1009.31
2022-09-06T11:04:31.116Z,1009.26
2022-09-06T11:10:53.976Z,1009.2
2022-09-06T11:17:13.965Z,1009.14
2022-09-06T11:23:36.982Z,1009.1
2022-09-06T11:29:56.970Z,1008.96
2022-09-06T11:36:20.028Z,1008.92
2022-09-06T11:42:39.985Z,1008.86
2022-09-06T11:49:03.146Z,1008.83
2022-09-06T11:55:23.068Z,1008.79
2022-09-06T12:01:46.203Z,1008.65
2022-09-06T12:08:05.982Z,1008.53
2022-09-06T12:14:28.990Z,1008.53
2022-09-06T12:20:48.975Z,1008.55
2022-09-06T12:27:11.974Z,1008.57
2022-09-06T12:33:31.969Z,1008.53
2022-09-06T12:39:55.033Z,1008.43
2022-09-06T12:46:15.039Z,1008.41
2022-09-06T12:52:37.971Z,1008.43
2022-09-06T12:58:58.270Z,1008.36
2022-09-06T13:05:20.980Z,1008.32
2022-09-06T13:11:40.987Z,1008.28
2022-09-06T13:18:03.972Z,1008.22
2022-09-06T13:24:23.981Z,1008.2
2022-09-06T13:30:49.890Z,1008.14
2022-09-06T13:37:07.025Z,1008.14
2022-09-06T13:43:29.970Z,1008.1
2022-09-06T13:49:49.982Z,1008.06
2022-09-06T13:56:12.980Z,1008.08
2022-09-06T14:02:33.033Z,1008.06
2022-09-06T14:09:06.706Z,1008.08
2022-09-06T14:15:15.973Z,1007.98
2022-09-06T14:21:38.986Z,1007.98
2022-09-06T14:27:58.975Z,1008.08
2022-09-06T14:34:21.980Z,1008.06
2022-09-06T14:40:41.990Z,1007.92
2022-09-06T14:47:04.971Z,1007.8
2022-09-06T14:53:39.666Z,1007.66
2022-09-06T14:59:47.979Z,1007.56
2022-09-06T15:06:08.215Z,1007.47
2022-09-06T15:12:30.989Z,1007.41
2022-09-06T15:18:50.982Z,1007.29
2022-09-06T15:25:13.989Z,1007.21
2022-09-06T15:41:21.975Z,1007.08
2022-09-06T15:47:44.974Z,1007.02
2022-09-06T15:54:04.981Z,1006.98
2022-09-06T16:00:27.981Z,1006.98
2022-09-06T16:06:47.971Z,1007.04
2022-09-06T16:13:11.191Z,1007
2022-09-06T16:19:31.184Z,1007
2022-09-06T16:25:53.997Z,1007.02
2022-09-06T16:32:14.272Z,1007
2022-09-06T16:38:36.984Z,1006.94
2022-09-06T16:44:56.972Z,1006.88
2022-09-06T16:51:19.981Z,1006.88
2022-09-06T16:57:39.983Z,1006.9
2022-09-06T17:04:02.990Z,1006.86
2022-09-06T17:10:22.980Z,1006.86
2022-09-06T17:16:46.110Z,1006.84
2022-09-06T17:23:05.987Z,1006.76
2022-09-06T17:29:28.973Z,1006.74
2022-09-06T17:35:48.983Z,1006.72
2022-09-06T17:42:11.978Z,1006.7
2022-09-06T17:48:31.980Z,1006.7
2022-09-06T17:54:54.970Z,1006.72
2022-09-06T18:01:15.000Z,1006.84
2022-09-06T18:07:37.982Z,1006.84
2022-09-06T18:13:57.970Z,1006.92
2022-09-06T18:20:20.982Z,1006.94
2022-09-06T18:26:40.973Z,1006.98
2022-09-06T18:33:04.211Z,1007.02
2022-09-06T18:39:23.982Z,1007.12
2022-09-06T18:45:46.999Z,1007.21
2022-09-06T18:52:06.985Z,1007.21
2022-09-06T18:58:30.071Z,1007.17
2022-09-06T19:04:49.981Z,1007.19
2022-09-06T19:11:12.981Z,1007.25
2022-09-06T19:17:33.172Z,1007.17
2022-09-06T19:23:56.250Z,1007.15
2022-09-06T19:30:15.961Z,1007.17
2022-09-06T19:36:38.984Z,1007.12
2022-09-06T19:42:58.982Z,1007.06
2022-09-06T19:49:22.119Z,1007.12
2022-09-06T19:55:41.970Z,1007.06
2022-09-06T20:02:05.065Z,1007.02
2022-09-06T20:08:25.016Z,1006.96
2022-09-06T20:14:47.972Z,1006.92
2022-09-06T20:21:07.983Z,1007.02
2022-09-06T20:27:30.973Z,1007.19
2022-09-06T20:33:50.988Z,1007.54
2022-09-06T20:40:14.029Z,1007.76
2022-09-06T20:46:34.101Z,1008.08
2022-09-06T20:52:56.984Z,1008.06
2022-09-06T20:59:16.964Z,1008.14
2022-09-06T21:05:39.998Z,1008.24
2022-09-06T21:21:47.984Z,1008.24
2022-09-06T21:28:10.973Z,1008.2
2022-09-06T21:34:30.988Z,1008.14
2022-09-06T21:40:53.975Z,1007.96
2022-09-06T21:47:13.971Z,1007.82
2022-09-06T21:53:37.001Z,1007.37
2022-09-06T21:59:56.971Z,1006.9
2022-09-06T22:22:53.974Z,1005.82
2022-09-06T22:29:13.982Z,1005.84
2022-09-06T22:35:36.968Z,1005.82
2022-09-06T22:41:56.968Z,1005.84
2022-09-06T22:48:19.983Z,1005.88
2022-09-06T22:54:39.975Z,1006.02
2022-09-06T23:01:03.084Z,1006.25
2022-09-06T23:07:22.978Z,1006.39
2022-09-06T23:13:45.974Z,1006.53
2022-09-06T23:20:05.987Z,1006.72
2022-09-06T23:26:28.980Z,1007.06
2022-09-06T23:32:48.995Z,1007.84
2022-09-06T23:39:11.981Z,1008.28
2022-09-06T23:45:31.970Z,1008.65
2022-09-06T23:51:54.971Z,1009.1
2022-09-06T23:58:14.970Z,1009.49
